createdAt,value
2018-07-31T00:00:03.221Z,1007.00
2018-07-31T00:01:56.052Z,1006.99
2018-07-31T00:02:56.037Z,1006.99
2018-07-31T00:04:48.851Z,1006.98
2018-07-31T00:05:48.798Z,1007.00
2018-07-31T00:07:41.632Z,1006.98
2018-07-31T00:08:41.617Z,1007.04
2018-07-31T00:10:34.473Z,1006.99
2018-07-31T00:11:34.385Z,1007.01
2018-07-31T00:13:27.208Z,1006.99
2018-07-31T00:14:27.182Z,1006.98
2018-07-31T00:16:19.993Z,1006.97
2018-07-31T00:17:19.964Z,1006.98
2018-07-31T00:19:12.808Z,1006.96
2018-07-31T00:20:12.751Z,1006.97
2018-07-31T00:22:05.579Z,1006.97
2018-07-31T00:23:05.557Z,1006.95
2018-07-31T00:24:58.372Z,1006.95
2018-07-31T00:25:58.324Z,1006.94
2018-07-31T00:27:51.156Z,1006.97
2018-07-31T00:28:51.125Z,1006.95
2018-07-31T00:30:43.960Z,1006.93
2018-07-31T00:31:43.909Z,1006.92
2018-07-31T00:33:36.728Z,1006.89
2018-07-31T00:34:36.705Z,1006.87
2018-07-31T00:36:29.538Z,1006.90
2018-07-31T00:37:29.490Z,1006.87
2018-07-31T00:39:22.299Z,1006.91
2018-07-31T00:40:22.280Z,1006.88
2018-07-31T00:42:15.108Z,1006.88
2018-07-31T00:43:15.069Z,1006.86
2018-07-31T00:45:07.918Z,1006.91
2018-07-31T00:46:07.854Z,1006.87
2018-07-31T00:48:00.670Z,1006.88
2018-07-31T00:49:00.640Z,1006.89
2018-07-31T00:50:53.486Z,1006.89
2018-07-31T00:51:53.435Z,1006.92
2018-07-31T00:53:46.263Z,1006.90
2018-07-31T00:54:46.228Z,1006.90
2018-07-31T00:56:39.057Z,1006.89
2018-07-31T00:57:39.013Z,1006.86
2018-07-31T00:59:31.830Z,1006.80
2018-07-31T01:00:31.804Z,1006.80
2018-07-31T01:02:24.624Z,1006.82
2018-07-31T01:03:24.597Z,1006.75
2018-07-31T01:05:17.429Z,1006.74
2018-07-31T01:06:17.380Z,1006.72
2018-07-31T01:08:10.211Z,1006.71
2018-07-31T01:09:10.168Z,1006.69
2018-07-31T01:11:03.512Z,1006.68
2018-07-31T01:12:03.459Z,1006.69
2018-07-31T01:13:56.267Z,1006.68
2018-07-31T01:14:56.240Z,1006.68
2018-07-31T01:16:49.080Z,1006.65
2018-07-31T01:17:49.030Z,1006.66
2018-07-31T01:19:41.850Z,1006.69
2018-07-31T01:20:41.817Z,1006.68
2018-07-31T01:22:34.648Z,1006.69
2018-07-31T01:23:34.600Z,1006.69
2018-07-31T01:25:27.420Z,1006.70
2018-07-31T01:26:27.398Z,1006.68
2018-07-31T01:28:20.227Z,1006.70
2018-07-31T01:29:20.176Z,1006.63
2018-07-31T01:31:13.000Z,1006.67
2018-07-31T01:32:12.971Z,1006.68
2018-07-31T01:34:05.786Z,1006.69
2018-07-31T01:35:05.757Z,1006.66
2018-07-31T01:36:58.608Z,1006.65
2018-07-31T01:37:58.547Z,1006.68
2018-07-31T01:39:51.370Z,1006.65
2018-07-31T01:40:51.328Z,1006.64
2018-07-31T01:42:44.151Z,1006.62
2018-07-31T01:43:44.121Z,1006.67
2018-07-31T01:45:36.935Z,1006.68
2018-07-31T01:46:36.905Z,1006.71
2018-07-31T01:48:29.737Z,1006.72
2018-07-31T01:49:29.692Z,1006.75
2018-07-31T01:51:22.521Z,1006.73
2018-07-31T01:52:22.482Z,1006.79
2018-07-31T01:54:15.315Z,1006.76
2018-07-31T01:55:15.261Z,1006.71
2018-07-31T01:57:08.085Z,1006.72
2018-07-31T01:58:08.052Z,1006.70
2018-07-31T02:00:00.886Z,1006.73
2018-07-31T02:01:00.841Z,1006.74
2018-07-31T02:02:53.651Z,1006.77
2018-07-31T02:03:53.622Z,1006.73
2018-07-31T02:05:46.437Z,1006.76
2018-07-31T02:06:46.412Z,1006.80
2018-07-31T02:08:39.237Z,1006.76
2018-07-31T02:09:39.190Z,1006.74
2018-07-31T02:11:32.007Z,1006.69
2018-07-31T02:12:31.982Z,1006.65
2018-07-31T02:14:24.824Z,1006.71
2018-07-31T02:15:24.774Z,1006.68
2018-07-31T02:17:17.607Z,1006.67
2018-07-31T02:18:17.559Z,1006.68
2018-07-31T02:20:10.383Z,1006.67
2018-07-31T02:21:10.341Z,1006.67
2018-07-31T02:23:03.154Z,1006.71
2018-07-31T02:24:03.128Z,1006.71
2018-07-31T02:25:55.957Z,1006.68
2018-07-31T02:26:55.909Z,1006.66
2018-07-31T02:28:48.728Z,1006.66
2018-07-31T02:29:48.689Z,1006.64
2018-07-31T02:31:41.530Z,1006.66
2018-07-31T02:32:41.484Z,1006.64
2018-07-31T02:34:34.314Z,1006.63
2018-07-31T02:35:34.294Z,1006.67
2018-07-31T02:37:27.099Z,1006.68
2018-07-31T02:38:27.061Z,1006.67
2018-07-31T02:40:19.897Z,1006.67
2018-07-31T02:41:19.854Z,1006.64
2018-07-31T02:43:12.659Z,1006.65
2018-07-31T02:44:12.632Z,1006.68
2018-07-31T02:46:05.471Z,1006.71
2018-07-31T02:47:05.429Z,1006.68
2018-07-31T02:48:58.228Z,1006.67
2018-07-31T02:49:58.208Z,1006.66
2018-07-31T02:51:51.034Z,1006.65
2018-07-31T02:52:50.989Z,1006.66
2018-07-31T02:54:43.823Z,1006.63
2018-07-31T02:55:43.791Z,1006.63
2018-07-31T02:57:36.589Z,1006.64
2018-07-31T02:58:36.554Z,1006.64
2018-07-31T03:00:29.402Z,1006.58
2018-07-31T03:01:29.368Z,1006.60
2018-07-31T03:03:22.175Z,1006.57
2018-07-31T03:04:22.144Z,1006.60
2018-07-31T03:06:15.493Z,1006.59
2018-07-31T03:07:15.430Z,1006.58
2018-07-31T03:09:08.244Z,1006.52
2018-07-31T03:10:08.209Z,1006.55
2018-07-31T03:12:01.045Z,1006.51
2018-07-31T03:13:01.005Z,1006.53
2018-07-31T03:14:53.840Z,1006.53
2018-07-31T03:15:53.780Z,1006.49
2018-07-31T03:17:46.621Z,1006.52
2018-07-31T03:18:46.564Z,1006.58
2018-07-31T03:20:39.396Z,1006.59
2018-07-31T03:21:39.351Z,1006.60
2018-07-31T03:23:32.175Z,1006.61
2018-07-31T03:24:32.144Z,1006.62
2018-07-31T03:26:24.985Z,1006.63
2018-07-31T03:27:24.930Z,1006.62
2018-07-31T03:29:17.751Z,1006.62
2018-07-31T03:30:17.726Z,1006.61
2018-07-31T03:32:10.555Z,1006.64
2018-07-31T03:33:10.510Z,1006.67
2018-07-31T03:35:03.325Z,1006.69
2018-07-31T03:36:03.306Z,1006.66
2018-07-31T03:37:56.119Z,1006.64
2018-07-31T03:38:56.084Z,1006.65
2018-07-31T03:40:48.927Z,1006.66
2018-07-31T03:41:48.864Z,1006.66
2018-07-31T03:43:41.685Z,1006.69
2018-07-31T03:44:41.646Z,1006.68
2018-07-31T03:46:34.474Z,1006.68
2018-07-31T03:47:34.435Z,1006.68
2018-07-31T03:49:27.242Z,1006.70
2018-07-31T03:50:27.219Z,1006.68
2018-07-31T03:52:20.046Z,1006.70
2018-07-31T03:53:19.998Z,1006.68
2018-07-31T03:55:13.310Z,1006.70
2018-07-31T03:56:13.278Z,1006.73
2018-07-31T03:58:06.132Z,1006.65
2018-07-31T03:59:06.069Z,1006.63
2018-07-31T04:00:59.375Z,1006.58
2018-07-31T04:01:59.352Z,1006.61
2018-07-31T04:03:52.167Z,1006.58
2018-07-31T04:04:52.135Z,1006.58
2018-07-31T04:06:44.956Z,1006.60
2018-07-31T04:07:44.924Z,1006.65
2018-07-31T04:09:37.730Z,1006.65
2018-07-31T04:10:37.706Z,1006.68
2018-07-31T04:12:30.540Z,1006.66
2018-07-31T04:13:30.486Z,1006.68
2018-07-31T04:15:23.306Z,1006.72
2018-07-31T04:16:23.274Z,1006.72
2018-07-31T04:18:16.093Z,1006.76
2018-07-31T04:19:16.052Z,1006.79
2018-07-31T04:21:09.361Z,1006.81
2018-07-31T04:22:09.331Z,1006.81
2018-07-31T04:24:02.157Z,1006.77
2018-07-31T04:25:02.119Z,1006.74
2018-07-31T04:26:54.942Z,1006.73
2018-07-31T04:27:54.922Z,1006.74
2018-07-31T04:29:47.734Z,1006.71
2018-07-31T04:30:47.694Z,1006.76
2018-07-31T04:32:40.518Z,1006.75
2018-07-31T04:33:40.467Z,1006.70
2018-07-31T04:35:33.303Z,1006.74
2018-07-31T04:36:33.264Z,1006.73
2018-07-31T04:38:26.103Z,1006.77
2018-07-31T04:39:26.054Z,1006.78
2018-07-31T04:41:18.888Z,1006.83
2018-07-31T04:42:18.849Z,1006.83
2018-07-31T04:44:11.684Z,1006.87
2018-07-31T04:45:11.652Z,1006.86
2018-07-31T04:47:04.458Z,1006.85
2018-07-31T04:48:04.429Z,1006.87
2018-07-31T04:49:57.264Z,1006.88
2018-07-31T04:50:57.205Z,1006.89
2018-07-31T04:52:50.032Z,1006.86
2018-07-31T04:53:49.996Z,1006.82
2018-07-31T04:55:42.828Z,1006.87
2018-07-31T04:56:42.821Z,1006.86
2018-07-31T04:58:35.609Z,1006.87
2018-07-31T04:59:35.563Z,1006.86
2018-07-31T05:01:28.375Z,1006.86
2018-07-31T05:02:28.347Z,1006.92
2018-07-31T05:04:21.195Z,1006.91
2018-07-31T05:05:21.125Z,1006.94
2018-07-31T05:07:13.950Z,1006.90
2018-07-31T05:08:13.910Z,1006.90
2018-07-31T05:10:06.740Z,1006.89
2018-07-31T05:11:06.717Z,1006.89
2018-07-31T05:12:59.509Z,1006.87
2018-07-31T05:13:59.488Z,1006.89
2018-07-31T05:15:52.324Z,1006.85
2018-07-31T05:16:52.270Z,1006.87
2018-07-31T05:18:45.094Z,1006.92
2018-07-31T05:19:45.053Z,1006.92
2018-07-31T05:21:37.913Z,1006.97
2018-07-31T05:22:37.839Z,1006.95
2018-07-31T05:24:30.671Z,1006.99
2018-07-31T05:25:30.614Z,1006.98
2018-07-31T05:27:23.939Z,1006.96
2018-07-31T05:28:23.900Z,1007.01
2018-07-31T05:30:16.724Z,1007.02
2018-07-31T05:31:16.690Z,1006.98
2018-07-31T05:33:09.510Z,1006.98
2018-07-31T05:34:09.476Z,1007.01
2018-07-31T05:36:02.317Z,1007.00
2018-07-31T05:37:02.259Z,1007.03
2018-07-31T05:38:55.070Z,1007.06
2018-07-31T05:39:55.030Z,1007.05
2018-07-31T05:41:47.894Z,1007.03
2018-07-31T05:42:47.839Z,1007.04
2018-07-31T05:44:40.654Z,1007.04
2018-07-31T05:45:40.632Z,1007.07
2018-07-31T05:47:33.456Z,1007.09
2018-07-31T05:48:33.406Z,1007.14
2018-07-31T05:50:26.231Z,1007.11
2018-07-31T05:51:26.196Z,1007.11
2018-07-31T05:53:19.171Z,1007.05
2018-07-31T05:54:18.982Z,1007.04
2018-07-31T05:56:11.823Z,1007.08
2018-07-31T05:57:11.773Z,1007.10
2018-07-31T05:59:04.592Z,1007.09
2018-07-31T06:00:04.602Z,1007.07
2018-07-31T06:01:57.395Z,1007.11
2018-07-31T06:02:57.350Z,1007.12
2018-07-31T06:04:50.179Z,1007.16
2018-07-31T06:05:50.155Z,1007.25
2018-07-31T06:07:43.455Z,1007.30
2018-07-31T06:08:43.420Z,1007.33
2018-07-31T06:10:36.228Z,1007.35
2018-07-31T06:11:36.200Z,1007.38
2018-07-31T06:13:29.028Z,1007.42
2018-07-31T06:14:28.988Z,1007.41
2018-07-31T06:16:22.306Z,1007.41
2018-07-31T06:17:22.267Z,1007.44
2018-07-31T06:19:15.578Z,1007.43
2018-07-31T06:20:15.556Z,1007.42
2018-07-31T06:22:08.377Z,1007.35
2018-07-31T06:23:08.326Z,1007.36
2018-07-31T06:25:01.147Z,1007.39
2018-07-31T06:26:01.121Z,1007.38
2018-07-31T06:27:53.983Z,1007.42
2018-07-31T06:28:53.903Z,1007.43
2018-07-31T06:30:46.733Z,1007.45
2018-07-31T06:31:46.705Z,1007.46
2018-07-31T06:33:39.537Z,1007.49
2018-07-31T06:34:39.482Z,1007.48
2018-07-31T06:36:32.306Z,1007.49
2018-07-31T06:37:32.278Z,1007.52
2018-07-31T06:39:25.111Z,1007.54
2018-07-31T06:40:25.108Z,1007.57
2018-07-31T06:42:17.888Z,1007.56
2018-07-31T06:43:17.852Z,1007.53
2018-07-31T06:45:10.696Z,1007.49
2018-07-31T06:46:10.646Z,1007.50
2018-07-31T06:48:03.487Z,1007.55
2018-07-31T06:49:03.429Z,1007.55
2018-07-31T06:50:56.858Z,1007.61
2018-07-31T06:51:56.712Z,1007.59
2018-07-31T06:53:49.552Z,1007.57
2018-07-31T06:54:49.504Z,1007.56
2018-07-31T06:56:42.371Z,1007.57
2018-07-31T06:57:42.295Z,1007.58
2018-07-31T06:59:35.118Z,1007.56
2018-07-31T07:00:35.088Z,1007.54
2018-07-31T07:02:27.898Z,1007.59
2018-07-31T07:03:27.869Z,1007.57
2018-07-31T07:05:20.717Z,1007.58
2018-07-31T07:06:20.664Z,1007.62
2018-07-31T07:08:13.474Z,1007.66
2018-07-31T07:09:13.478Z,1007.66
2018-07-31T07:11:06.289Z,1007.62
2018-07-31T07:12:06.244Z,1007.64
2018-07-31T07:13:59.064Z,1007.58
2018-07-31T07:14:59.029Z,1007.55
2018-07-31T07:16:51.869Z,1007.51
2018-07-31T07:17:51.822Z,1007.51
2018-07-31T07:19:44.653Z,1007.49
2018-07-31T07:20:44.610Z,1007.43
2018-07-31T07:22:37.484Z,1007.40
2018-07-31T07:23:37.398Z,1007.34
2018-07-31T07:25:30.233Z,1007.35
2018-07-31T07:26:30.185Z,1007.33
2018-07-31T07:28:23.033Z,1007.31
2018-07-31T07:29:22.989Z,1007.32
2018-07-31T07:31:15.830Z,1007.32
2018-07-31T07:32:15.779Z,1007.32
2018-07-31T07:34:08.585Z,1007.33
2018-07-31T07:35:08.565Z,1007.39
2018-07-31T07:37:01.390Z,1007.43
2018-07-31T07:38:01.355Z,1007.42
2018-07-31T07:39:54.170Z,1007.49
2018-07-31T07:40:54.143Z,1007.49
2018-07-31T07:42:46.975Z,1007.51
2018-07-31T07:43:46.930Z,1007.53
2018-07-31T07:45:39.759Z,1007.52
2018-07-31T07:46:39.734Z,1007.57
2018-07-31T07:48:32.617Z,1007.54
2018-07-31T07:49:32.552Z,1007.57
2018-07-31T07:51:25.359Z,1007.56
2018-07-31T07:52:25.314Z,1007.58
2018-07-31T07:54:18.193Z,1007.56
2018-07-31T07:55:18.116Z,1007.58
2018-07-31T07:57:10.941Z,1007.56
2018-07-31T07:58:10.909Z,1007.61
2018-07-31T08:00:03.724Z,1007.55
2018-07-31T08:01:03.693Z,1007.54
2018-07-31T08:02:56.536Z,1007.57
2018-07-31T08:03:56.492Z,1007.56
2018-07-31T08:05:49.306Z,1007.54
2018-07-31T08:06:49.276Z,1007.53
2018-07-31T08:08:42.124Z,1007.54
2018-07-31T08:09:42.089Z,1007.51
2018-07-31T08:11:34.891Z,1007.50
2018-07-31T08:12:34.870Z,1007.53
2018-07-31T08:14:27.716Z,1007.52
2018-07-31T08:15:27.676Z,1007.46
2018-07-31T08:17:20.515Z,1007.45
2018-07-31T08:18:20.462Z,1007.40
2018-07-31T08:20:14.320Z,1007.44
2018-07-31T08:21:14.255Z,1007.42
2018-07-31T08:23:07.095Z,1007.47
2018-07-31T08:24:07.061Z,1007.49
2018-07-31T08:25:59.896Z,1007.55
2018-07-31T08:26:59.870Z,1007.55
2018-07-31T08:28:52.726Z,1007.54
2018-07-31T08:29:52.666Z,1007.59
2018-07-31T08:31:45.495Z,1007.62
2018-07-31T08:32:45.471Z,1007.67
2018-07-31T08:34:38.307Z,1007.70
2018-07-31T08:35:38.277Z,1007.68
2018-07-31T08:37:31.625Z,1007.72
2018-07-31T08:38:31.572Z,1007.75
2018-07-31T08:40:24.401Z,1007.80
2018-07-31T08:41:24.450Z,1007.83
2018-07-31T08:43:17.198Z,1007.80
2018-07-31T08:44:17.164Z,1007.83
2018-07-31T08:46:10.003Z,1007.81
2018-07-31T08:47:09.966Z,1007.81
2018-07-31T08:49:02.798Z,1007.76
2018-07-31T08:50:02.754Z,1007.82
2018-07-31T08:51:55.581Z,1007.80
2018-07-31T08:52:55.561Z,1007.82
2018-07-31T08:54:48.401Z,1007.82
2018-07-31T08:55:48.409Z,1007.81
2018-07-31T08:57:41.189Z,1007.87
2018-07-31T08:58:41.156Z,1007.87
2018-07-31T09:00:33.997Z,1007.91
2018-07-31T09:01:33.959Z,1007.88
2018-07-31T09:03:26.771Z,1007.84
2018-07-31T09:04:26.753Z,1007.85
2018-07-31T09:06:19.603Z,1007.87
2018-07-31T09:07:19.546Z,1007.86
2018-07-31T09:09:12.380Z,1007.87
2018-07-31T09:10:12.352Z,1007.87
2018-07-31T09:12:05.192Z,1007.87
2018-07-31T09:13:05.153Z,1007.86
2018-07-31T09:14:58.012Z,1007.82
2018-07-31T09:15:57.951Z,1007.89
2018-07-31T09:17:50.773Z,1007.85
2018-07-31T09:18:50.744Z,1007.85
2018-07-31T09:20:43.588Z,1007.84
2018-07-31T09:21:43.558Z,1007.85
2018-07-31T09:23:36.393Z,1007.86
2018-07-31T09:24:36.449Z,1007.87
2018-07-31T09:26:29.210Z,1007.89
2018-07-31T09:27:29.178Z,1007.91
2018-07-31T09:29:22.002Z,1007.89
2018-07-31T09:30:21.990Z,1007.87
2018-07-31T09:32:14.854Z,1007.89
2018-07-31T09:33:14.773Z,1007.90
2018-07-31T09:35:07.607Z,1007.91
2018-07-31T09:36:07.568Z,1007.93
2018-07-31T09:38:00.440Z,1007.91
2018-07-31T09:39:00.388Z,1007.89
2018-07-31T09:40:53.238Z,1007.92
2018-07-31T09:41:53.184Z,1007.92
2018-07-31T09:43:46.044Z,1007.91
2018-07-31T09:44:45.998Z,1007.95
2018-07-31T09:46:38.828Z,1007.94
2018-07-31T09:47:38.803Z,1007.92
2018-07-31T09:49:31.619Z,1008.02
2018-07-31T09:50:31.603Z,1008.04
2018-07-31T09:52:24.449Z,1008.08
2018-07-31T09:53:24.434Z,1008.08
2018-07-31T09:55:17.234Z,1008.10
2018-07-31T09:56:17.215Z,1008.10
2018-07-31T09:58:10.067Z,1008.08
2018-07-31T09:59:10.033Z,1008.05
2018-07-31T10:01:02.837Z,1008.14
2018-07-31T10:02:02.833Z,1008.35
2018-07-31T10:03:55.674Z,1008.46
2018-07-31T10:04:55.658Z,1008.50
2018-07-31T10:06:48.454Z,1008.17
2018-07-31T10:07:48.429Z,1008.76
2018-07-31T10:09:41.265Z,1008.57
2018-07-31T10:10:41.229Z,1008.56
2018-07-31T10:12:34.090Z,1008.24
2018-07-31T10:13:34.042Z,1008.71
2018-07-31T10:15:26.876Z,1008.64
2018-07-31T10:16:26.859Z,1008.67
2018-07-31T10:18:19.758Z,1008.74
2018-07-31T10:19:19.669Z,1008.67
2018-07-31T10:21:12.514Z,1008.67
2018-07-31T10:22:12.525Z,1008.66
2018-07-31T10:24:05.379Z,1008.61
2018-07-31T10:25:05.290Z,1008.42
2018-07-31T10:26:58.147Z,1008.80
2018-07-31T10:27:58.115Z,1008.67
2018-07-31T10:29:50.982Z,1008.35
2018-07-31T10:30:51.031Z,1008.44
2018-07-31T10:32:43.793Z,1008.18
2018-07-31T10:33:43.766Z,1008.40
2018-07-31T10:35:36.591Z,1008.77
2018-07-31T10:36:36.575Z,1008.84
2018-07-31T10:38:29.432Z,1008.67
2018-07-31T10:39:29.395Z,1008.42
2018-07-31T10:41:22.251Z,1008.29
2018-07-31T10:42:22.215Z,1008.93
2018-07-31T10:44:15.074Z,1007.97
2018-07-31T10:45:15.032Z,1008.10
2018-07-31T10:47:07.856Z,1008.85
2018-07-31T10:48:07.843Z,1008.79
2018-07-31T10:50:00.706Z,1008.25
2018-07-31T10:51:00.680Z,1008.79
2018-07-31T10:52:53.502Z,1008.77
2018-07-31T10:53:53.482Z,1008.74
2018-07-31T10:55:46.342Z,1008.80
2018-07-31T10:56:46.302Z,1008.80
2018-07-31T10:58:39.262Z,1008.76
2018-07-31T10:59:39.140Z,1008.77
2018-07-31T11:01:31.956Z,1008.05
2018-07-31T11:02:31.933Z,1007.92
2018-07-31T11:04:24.808Z,1008.63
2018-07-31T11:05:24.762Z,1008.09
2018-07-31T11:07:17.597Z,1008.75
2018-07-31T11:08:17.573Z,1008.88
2018-07-31T11:10:10.427Z,1008.87
2018-07-31T11:11:10.377Z,1008.81
2018-07-31T11:13:03.223Z,1008.25
2018-07-31T11:14:03.226Z,1008.88
2018-07-31T11:15:56.072Z,1008.77
2018-07-31T11:16:56.034Z,1008.60
2018-07-31T11:18:48.872Z,1008.69
2018-07-31T11:19:48.848Z,1008.77
2018-07-31T11:21:41.706Z,1008.82
2018-07-31T11:22:41.672Z,1008.76
2018-07-31T11:24:34.509Z,1008.80
2018-07-31T11:25:34.507Z,1008.72
2018-07-31T11:27:27.354Z,1008.82
2018-07-31T11:28:27.322Z,1008.77
2018-07-31T11:30:20.169Z,1008.79
2018-07-31T11:31:20.137Z,1008.78
2018-07-31T11:33:12.965Z,1008.65
2018-07-31T11:34:12.965Z,1008.69
2018-07-31T11:36:05.814Z,1008.60
2018-07-31T11:37:05.767Z,1008.49
2018-07-31T11:38:58.607Z,1008.69
2018-07-31T11:39:58.593Z,1008.70
2018-07-31T11:41:51.465Z,1008.66
2018-07-31T11:42:51.419Z,1008.57
2018-07-31T11:44:44.253Z,1008.59
2018-07-31T11:45:44.235Z,1008.45
2018-07-31T11:47:37.083Z,1008.03
2018-07-31T11:48:37.068Z,1008.66
2018-07-31T11:50:29.904Z,1008.58
2018-07-31T11:51:29.884Z,1008.58
2018-07-31T11:53:22.752Z,1008.52
2018-07-31T11:54:22.699Z,1008.51
2018-07-31T11:56:15.544Z,1008.47
2018-07-31T11:57:15.524Z,1008.54
2018-07-31T11:59:08.372Z,1008.65
2018-07-31T12:00:08.344Z,1008.28
2018-07-31T12:02:01.194Z,1008.06
2018-07-31T12:03:01.165Z,1008.16
2018-07-31T12:04:54.008Z,1008.18
2018-07-31T12:05:53.980Z,1008.10
2018-07-31T12:07:46.839Z,1008.55
2018-07-31T12:08:46.802Z,1008.15
2018-07-31T12:10:39.634Z,1008.47
2018-07-31T12:11:39.621Z,1008.50
2018-07-31T12:13:32.468Z,1008.44
2018-07-31T12:14:32.429Z,1008.55
2018-07-31T12:16:25.270Z,1008.44
2018-07-31T12:17:25.252Z,1008.45
2018-07-31T12:19:18.109Z,1008.42
2018-07-31T12:20:18.078Z,1008.52
2018-07-31T12:22:10.916Z,1008.43
2018-07-31T12:23:10.887Z,1008.42
2018-07-31T12:25:03.750Z,1008.27
2018-07-31T12:26:03.736Z,1008.52
2018-07-31T12:27:56.550Z,1007.89
2018-07-31T12:28:56.535Z,1008.55
2018-07-31T12:30:50.381Z,1008.34
2018-07-31T12:31:50.344Z,1008.38
2018-07-31T12:33:43.204Z,1008.49
2018-07-31T12:34:43.171Z,1007.90
2018-07-31T12:36:36.009Z,1008.12
2018-07-31T12:37:35.995Z,1008.41
2018-07-31T12:39:28.836Z,1008.55
2018-07-31T12:40:28.812Z,1008.51
2018-07-31T12:42:21.650Z,1008.45
2018-07-31T12:43:21.626Z,1008.51
2018-07-31T12:45:14.484Z,1008.44
2018-07-31T12:46:14.440Z,1008.45
2018-07-31T12:48:07.336Z,1008.53
2018-07-31T12:49:07.270Z,1008.44
2018-07-31T12:51:00.112Z,1008.41
2018-07-31T12:52:00.090Z,1008.47
2018-07-31T12:53:52.953Z,1007.95
2018-07-31T12:54:52.916Z,1008.42
2018-07-31T12:56:45.766Z,1008.46
2018-07-31T12:57:45.740Z,1008.23
2018-07-31T12:59:38.599Z,1008.03
2018-07-31T13:00:38.611Z,1008.01
2018-07-31T13:02:31.389Z,1008.35
2018-07-31T13:03:31.382Z,1008.40
2018-07-31T13:05:24.223Z,1007.98
2018-07-31T13:06:24.180Z,1008.29
2018-07-31T13:08:17.023Z,1008.05
2018-07-31T13:09:17.002Z,1008.26
2018-07-31T13:11:09.853Z,1008.15
2018-07-31T13:12:09.811Z,1008.06
2018-07-31T13:14:02.650Z,1008.21
2018-07-31T13:15:02.626Z,1008.43
2018-07-31T13:16:55.487Z,1008.41
2018-07-31T13:17:55.453Z,1008.33
2018-07-31T13:19:48.283Z,1008.12
2018-07-31T13:20:48.267Z,1008.35
2018-07-31T13:22:41.131Z,1008.46
2018-07-31T13:23:41.090Z,1008.39
2018-07-31T13:25:33.938Z,1008.43
2018-07-31T13:26:33.903Z,1008.38
2018-07-31T13:28:26.752Z,1008.45
2018-07-31T13:29:26.708Z,1008.38
2018-07-31T13:31:19.582Z,1008.00
2018-07-31T13:32:19.536Z,1008.31
2018-07-31T13:34:12.368Z,1008.31
2018-07-31T13:35:12.363Z,1008.30
2018-07-31T13:37:05.212Z,1008.08
2018-07-31T13:38:05.162Z,1008.08
2018-07-31T13:39:58.008Z,1008.38
2018-07-31T13:40:57.977Z,1008.29
2018-07-31T13:42:50.842Z,1008.33
2018-07-31T13:43:50.925Z,1008.45
2018-07-31T13:45:43.629Z,1008.43
2018-07-31T13:46:43.601Z,1008.34
2018-07-31T13:48:36.476Z,1008.40
2018-07-31T13:49:36.452Z,1008.42
2018-07-31T13:51:29.279Z,1008.40
2018-07-31T13:52:29.258Z,1008.39
2018-07-31T13:54:22.114Z,1008.44
2018-07-31T13:55:22.110Z,1008.47
2018-07-31T13:57:14.928Z,1008.49
2018-07-31T13:58:14.884Z,1008.44
2018-07-31T14:00:07.724Z,1008.37
2018-07-31T14:01:07.704Z,1008.39
2018-07-31T14:03:00.555Z,1008.43
2018-07-31T14:04:00.539Z,1008.41
2018-07-31T14:05:53.363Z,1008.52
2018-07-31T14:06:53.352Z,1008.50
2018-07-31T14:08:46.234Z,1008.40
2018-07-31T14:09:46.174Z,1008.32
2018-07-31T14:11:39.015Z,1008.40
2018-07-31T14:12:39.000Z,1008.45
2018-07-31T14:14:31.814Z,1008.43
2018-07-31T14:15:31.800Z,1008.24
2018-07-31T14:17:24.646Z,1008.20
2018-07-31T14:18:24.649Z,1008.25
2018-07-31T14:20:17.470Z,1008.19
2018-07-31T14:21:17.444Z,1008.45
2018-07-31T14:23:10.285Z,1008.39
2018-07-31T14:24:10.255Z,1008.45
2018-07-31T14:26:03.088Z,1008.38
2018-07-31T14:27:03.071Z,1008.39
2018-07-31T14:28:55.926Z,1008.36
2018-07-31T14:29:55.884Z,1008.39
2018-07-31T14:31:48.730Z,1008.41
2018-07-31T14:32:48.701Z,1008.47
2018-07-31T14:34:41.544Z,1008.46
2018-07-31T14:35:41.528Z,1008.47
2018-07-31T14:37:34.345Z,1008.51
2018-07-31T14:38:34.324Z,1008.48
2018-07-31T14:40:27.194Z,1008.48
2018-07-31T14:41:27.161Z,1008.46
2018-07-31T14:43:20.007Z,1008.36
2018-07-31T14:44:19.975Z,1008.44
2018-07-31T14:46:12.869Z,1008.43
2018-07-31T14:47:12.816Z,1008.44
2018-07-31T14:49:05.655Z,1008.36
2018-07-31T14:50:05.612Z,1008.41
2018-07-31T14:51:58.450Z,1008.45
2018-07-31T14:52:58.436Z,1008.42
2018-07-31T14:54:51.285Z,1008.47
2018-07-31T14:55:51.237Z,1008.48
2018-07-31T14:57:45.075Z,1008.44
2018-07-31T14:58:45.070Z,1008.45
2018-07-31T15:00:37.917Z,1008.50
2018-07-31T15:01:37.871Z,1008.52
2018-07-31T15:03:30.717Z,1008.45
2018-07-31T15:04:30.690Z,1008.55
2018-07-31T15:06:23.587Z,1008.59
2018-07-31T15:07:23.572Z,1008.55
2018-07-31T15:09:16.375Z,1008.61
2018-07-31T15:10:16.357Z,1008.63
2018-07-31T15:12:09.192Z,1008.55
2018-07-31T15:13:09.161Z,1008.58
2018-07-31T15:15:02.012Z,1008.62
2018-07-31T15:16:01.972Z,1008.63
2018-07-31T15:17:54.826Z,1008.58
2018-07-31T15:18:54.786Z,1008.51
2018-07-31T15:20:47.671Z,1008.59
2018-07-31T15:21:47.602Z,1008.64
2018-07-31T15:23:40.462Z,1008.74
2018-07-31T15:24:40.407Z,1008.71
2018-07-31T15:26:33.268Z,1008.47
2018-07-31T15:27:33.235Z,1008.70
2018-07-31T15:29:26.076Z,1008.71
2018-07-31T15:30:26.047Z,1008.55
2018-07-31T15:32:18.902Z,1008.43
2018-07-31T15:33:18.883Z,1008.41
2018-07-31T15:35:11.721Z,1008.46
2018-07-31T15:36:11.693Z,1008.48
2018-07-31T15:38:04.545Z,1008.53
2018-07-31T15:39:04.507Z,1008.46
2018-07-31T15:40:57.347Z,1008.49
2018-07-31T15:41:57.371Z,1008.63
2018-07-31T15:43:50.163Z,1008.58
2018-07-31T15:44:50.135Z,1008.54
2018-07-31T15:46:42.991Z,1008.52
2018-07-31T15:47:42.951Z,1008.60
2018-07-31T15:49:35.787Z,1008.67
2018-07-31T15:50:35.771Z,1008.68
2018-07-31T15:52:28.582Z,1008.75
2018-07-31T15:53:28.563Z,1008.76
2018-07-31T15:55:21.396Z,1008.58
2018-07-31T15:56:21.368Z,1008.53
2018-07-31T15:58:14.208Z,1008.55
2018-07-31T15:59:14.177Z,1008.59
2018-07-31T16:01:07.004Z,1008.59
2018-07-31T16:02:06.986Z,1008.62
2018-07-31T16:03:59.823Z,1008.56
2018-07-31T16:04:59.794Z,1008.74
2018-07-31T16:06:52.628Z,1008.82
2018-07-31T16:07:52.599Z,1008.71
2018-07-31T16:09:45.433Z,1008.59
2018-07-31T16:10:45.408Z,1008.76
2018-07-31T16:12:38.233Z,1008.77
2018-07-31T16:13:38.207Z,1008.75
2018-07-31T16:15:31.055Z,1008.72
2018-07-31T16:16:31.024Z,1008.76
2018-07-31T16:18:23.859Z,1008.73
2018-07-31T16:19:23.829Z,1008.72
2018-07-31T16:21:16.650Z,1008.77
2018-07-31T16:22:16.640Z,1008.82
2018-07-31T16:24:09.484Z,1008.76
2018-07-31T16:25:09.434Z,1008.78
2018-07-31T16:27:02.264Z,1008.70
2018-07-31T16:28:02.249Z,1008.70
2018-07-31T16:29:55.100Z,1008.62
2018-07-31T16:30:55.070Z,1008.66
2018-07-31T16:32:47.894Z,1008.58
2018-07-31T16:33:47.880Z,1008.57
2018-07-31T16:35:40.715Z,1008.59
2018-07-31T16:36:40.684Z,1008.58
2018-07-31T16:38:33.543Z,1008.67
2018-07-31T16:39:33.497Z,1008.70
2018-07-31T16:41:26.386Z,1008.70
2018-07-31T16:42:26.313Z,1008.74
2018-07-31T16:44:19.191Z,1008.74
2018-07-31T16:45:19.140Z,1008.74
2018-07-31T16:47:11.966Z,1008.69
2018-07-31T16:48:11.949Z,1008.67
2018-07-31T16:50:04.799Z,1008.68
2018-07-31T16:51:04.776Z,1008.68
2018-07-31T16:52:57.591Z,1008.72
2018-07-31T16:53:57.574Z,1008.75
2018-07-31T16:55:50.424Z,1008.72
2018-07-31T16:56:50.428Z,1008.75
2018-07-31T16:58:43.213Z,1008.80
2018-07-31T16:59:43.177Z,1008.70
2018-07-31T17:01:36.031Z,1008.81
2018-07-31T17:02:35.991Z,1008.82
2018-07-31T17:04:28.942Z,1008.79
2018-07-31T17:05:28.792Z,1008.82
2018-07-31T17:07:21.640Z,1008.86
2018-07-31T17:08:21.602Z,1008.81
2018-07-31T17:10:14.465Z,1008.82
2018-07-31T17:11:14.409Z,1008.82
2018-07-31T17:13:07.245Z,1008.80
2018-07-31T17:14:07.214Z,1008.88
2018-07-31T17:16:00.067Z,1008.88
2018-07-31T17:17:00.020Z,1008.87
2018-07-31T17:18:52.865Z,1008.83
2018-07-31T17:19:52.840Z,1008.90
2018-07-31T17:21:45.677Z,1008.91
2018-07-31T17:22:45.651Z,1008.88
2018-07-31T17:24:38.471Z,1008.92